createdAt,value
2018-09-22T05:50:22.511Z,24.11
2018-09-22T05:52:48.510Z,23.97
2018-09-22T05:55:14.521Z,23.94
2018-09-22T05:57:40.507Z,23.97
2018-09-22T06:00:06.512Z,24.01
2018-09-22T06:02:32.485Z,24.17
2018-09-22T06:04:58.468Z,24.28
2018-09-22T06:07:24.440Z,24.40
2018-09-22T06:09:50.441Z,24.55
2018-09-22T06:12:16.449Z,24.81
2018-09-22T06:14:42.457Z,24.99
2018-09-22T06:17:08.476Z,25.13
2018-09-22T06:19:34.469Z,25.26
2018-09-22T06:22:00.480Z,25.39
2018-09-22T06:24:26.504Z,25.55
2018-09-22T06:26:52.460Z,25.68
2018-09-22T06:29:18.424Z,25.79
2018-09-22T06:31:44.363Z,25.86
2018-09-22T06:34:10.357Z,25.92
2018-09-22T06:36:36.354Z,26.03
2018-09-22T06:39:02.293Z,26.11
2018-09-22T06:41:28.232Z,26.08
2018-09-22T06:43:54.196Z,26.12
2018-09-22T06:46:20.231Z,26.18
2018-09-22T06:48:46.111Z,26.31
2018-09-22T06:51:12.091Z,26.40
2018-09-22T06:53:38.053Z,26.38
2018-09-22T06:56:04.132Z,26.43
2018-09-22T06:58:30.168Z,26.47
2018-09-22T07:00:56.177Z,26.51
2018-09-22T07:03:22.182Z,26.62
2018-09-22T07:05:48.129Z,26.55
2018-09-22T07:08:14.118Z,26.31
2018-09-22T07:10:40.111Z,26.26
2018-09-22T07:13:06.090Z,26.35
2018-09-22T07:18:05.003Z,26.62
2018-09-22T07:20:30.962Z,26.78
2018-09-22T07:22:56.908Z,26.90
2018-09-22T07:25:23.205Z,26.97
2018-09-22T07:27:49.210Z,27.06
2018-09-22T07:30:15.185Z,27.16
2018-09-22T07:32:41.141Z,27.24
2018-09-22T07:35:08.206Z,27.32
2018-09-22T07:37:34.192Z,27.46
2018-09-22T07:40:00.156Z,27.53
2018-09-22T07:42:26.147Z,27.71
2018-09-22T07:44:52.147Z,27.86
2018-09-22T07:47:18.143Z,28.06
2018-09-22T07:49:44.140Z,28.15
2018-09-22T07:52:10.091Z,28.25
2018-09-22T07:54:36.052Z,27.94
2018-09-22T07:57:02.054Z,27.88
2018-09-22T07:59:29.026Z,27.82
2018-09-22T08:01:55.028Z,27.79
2018-09-22T08:04:21.019Z,27.67
2018-09-22T08:06:46.977Z,27.64
2018-09-22T08:09:12.957Z,27.59
2018-09-22T08:11:38.988Z,27.42
2018-09-22T08:14:04.936Z,27.25
2018-09-22T08:16:30.894Z,26.99
2018-09-22T08:18:56.821Z,26.86
2018-09-22T08:21:22.816Z,26.75
2018-09-22T08:23:48.759Z,26.68
2018-09-22T08:26:14.729Z,26.58
2018-09-22T08:28:40.676Z,26.56
2018-09-22T08:31:06.746Z,26.53
2018-09-22T08:33:32.743Z,26.53
2018-09-22T08:35:58.765Z,26.57
2018-09-22T08:38:24.729Z,26.55
2018-09-22T08:40:50.770Z,26.60
2018-09-22T08:43:16.753Z,26.68
2018-09-22T08:45:42.712Z,26.76
2018-09-22T08:48:08.692Z,26.76
2018-09-22T08:50:34.663Z,26.70
2018-09-22T08:53:00.641Z,26.59
2018-09-22T08:55:26.601Z,26.58
2018-09-22T08:57:52.628Z,26.57
2018-09-22T09:00:18.608Z,26.51
2018-09-22T09:02:44.622Z,26.45
2018-09-22T09:05:10.855Z,26.44
2018-09-22T09:07:36.802Z,26.40
2018-09-22T09:10:02.821Z,26.45
2018-09-22T09:12:28.821Z,26.45
2018-09-22T09:14:54.797Z,26.28
2018-09-22T09:17:20.892Z,26.26
2018-09-22T09:19:46.891Z,26.35
2018-09-22T09:22:12.880Z,26.45
2018-09-22T09:24:38.927Z,26.46
2018-09-22T09:27:04.935Z,26.34
2018-09-22T09:29:30.896Z,26.42
2018-09-22T09:31:56.927Z,26.44
2018-09-22T09:34:22.944Z,26.44
2018-09-22T09:36:48.977Z,26.50
2018-09-22T09:39:14.917Z,26.45
2018-09-22T09:41:41.029Z,26.43
2018-09-22T09:44:06.986Z,26.41
2018-09-22T09:46:32.972Z,26.35
2018-09-22T09:48:58.952Z,26.34
2018-09-22T09:51:24.919Z,26.38
2018-09-22T09:53:50.897Z,26.40
2018-09-22T09:56:16.907Z,26.38
2018-09-22T09:58:42.951Z,26.46
2018-09-22T10:01:09.008Z,26.42
2018-09-22T10:03:34.990Z,26.34
2018-09-22T10:06:00.952Z,26.32
2018-09-22T10:08:26.943Z,26.27
2018-09-22T10:10:52.917Z,26.25
2018-09-22T10:13:18.873Z,26.27
2018-09-22T10:15:44.832Z,26.23
2018-09-22T10:18:10.805Z,26.22
2018-09-22T10:20:36.803Z,26.27
2018-09-22T10:23:02.793Z,26.28
2018-09-22T10:25:28.767Z,26.26
2018-09-22T10:27:54.763Z,26.31
2018-09-22T10:30:20.811Z,26.23
2018-09-22T10:32:46.758Z,26.15
2018-09-22T10:35:12.740Z,26.21
2018-09-22T10:37:38.719Z,26.22
2018-09-22T10:40:04.673Z,26.14
2018-09-22T10:42:30.745Z,26.22
2018-09-22T10:44:56.694Z,26.34
2018-09-22T10:47:22.638Z,26.43
2018-09-22T10:49:48.601Z,26.35
2018-09-22T10:52:14.562Z,26.26
2018-09-22T10:54:40.555Z,26.31
2018-09-22T10:57:06.515Z,26.39
2018-09-22T10:59:32.509Z,26.36
2018-09-22T11:01:58.499Z,26.34
2018-09-22T11:04:24.496Z,26.35
2018-09-22T11:06:50.459Z,26.34
2018-09-22T11:09:16.434Z,26.36
2018-09-22T11:11:42.423Z,26.43
2018-09-22T11:14:08.377Z,26.44
2018-09-22T11:16:34.331Z,26.40
2018-09-22T11:19:00.691Z,26.45
2018-09-22T11:21:26.650Z,26.38
2018-09-22T11:23:52.646Z,26.30
2018-09-22T11:26:18.600Z,26.37
2018-09-22T11:28:44.585Z,26.31
2018-09-22T11:31:10.557Z,26.29
2018-09-22T11:33:36.614Z,26.37
2018-09-22T11:36:02.577Z,26.38
2018-09-22T11:38:28.609Z,26.31
2018-09-22T11:40:54.533Z,26.28
2018-09-22T11:43:20.535Z,26.21
2018-09-22T11:45:46.497Z,26.16
2018-09-22T11:48:12.450Z,26.01
2018-09-22T11:50:38.417Z,26.03
2018-09-22T11:53:04.403Z,26.08
2018-09-22T11:55:30.373Z,26.15
2018-09-22T11:57:56.329Z,26.24
2018-09-22T12:00:22.268Z,26.31
2018-09-22T12:02:48.293Z,26.31
2018-09-22T12:05:14.277Z,26.28
2018-09-22T12:07:40.237Z,26.32
2018-09-22T12:10:06.644Z,26.33
2018-09-22T12:12:32.672Z,26.33
2018-09-22T12:14:58.649Z,26.26
2018-09-22T12:17:24.627Z,26.16
2018-09-22T12:19:50.603Z,26.16
2018-09-22T12:22:16.540Z,26.13
2018-09-22T12:24:42.506Z,26.16
2018-09-22T12:27:08.481Z,26.21
2018-09-22T12:29:34.473Z,26.22
2018-09-22T12:32:00.486Z,26.20
2018-09-22T12:34:26.428Z,26.32
2018-09-22T12:36:52.420Z,26.38
2018-09-22T12:39:18.399Z,26.43
2018-09-22T12:41:44.391Z,26.44
2018-09-22T12:44:10.379Z,26.44
2018-09-22T12:46:36.360Z,26.35
2018-09-22T12:49:02.325Z,26.42
2018-09-22T12:51:28.286Z,26.37
2018-09-22T12:53:54.272Z,26.32
2018-09-22T12:56:20.226Z,26.28
2018-09-22T12:58:46.207Z,26.26
2018-09-22T13:01:12.191Z,26.22
2018-09-22T13:03:38.189Z,26.26
2018-09-22T13:06:04.179Z,26.25
2018-09-22T13:08:30.133Z,26.26
2018-09-22T13:10:56.069Z,26.25
2018-09-22T13:13:22.067Z,26.30
2018-09-22T13:15:48.054Z,26.31
2018-09-22T13:18:13.991Z,26.30
2018-09-22T13:20:39.966Z,26.32
2018-09-22T13:23:05.924Z,26.32
2018-09-22T13:25:31.880Z,26.23
2018-09-22T13:27:57.902Z,26.25
2018-09-22T13:30:23.893Z,26.31
2018-09-22T13:32:49.851Z,26.34
2018-09-22T13:35:15.807Z,26.36
2018-09-22T13:37:41.768Z,26.34
2018-09-22T13:40:07.745Z,26.31
2018-09-22T13:42:33.716Z,26.27
2018-09-22T13:44:59.688Z,26.23
2018-09-22T13:47:25.663Z,26.18
2018-09-22T13:49:51.661Z,26.15
2018-09-22T13:52:17.612Z,26.16
2018-09-22T13:54:43.576Z,26.14
2018-09-22T13:57:09.529Z,26.19
2018-09-22T13:59:35.561Z,26.27
2018-09-22T14:02:01.522Z,26.27
2018-09-22T14:04:27.488Z,26.32
2018-09-22T14:06:53.467Z,26.24
2018-09-22T14:09:19.428Z,26.26
2018-09-22T14:11:45.416Z,26.31
2018-09-22T14:14:11.374Z,26.31
2018-09-22T14:16:37.342Z,26.28
2018-09-22T14:19:03.294Z,26.27
2018-09-22T14:21:29.351Z,26.24
2018-09-22T14:23:55.252Z,26.22
2018-09-22T14:26:21.218Z,26.25
2018-09-22T14:28:47.199Z,26.23
2018-09-22T14:31:13.181Z,26.26
2018-09-22T14:33:39.131Z,26.27
2018-09-22T14:36:05.119Z,26.23
2018-09-22T14:38:31.168Z,26.23
2018-09-22T14:40:57.165Z,26.24
2018-09-22T14:43:23.134Z,26.21
2018-09-22T14:45:49.098Z,26.19
2018-09-22T14:48:15.059Z,26.17
2018-09-22T14:50:41.049Z,26.18
2018-09-22T14:53:07.026Z,26.16
2018-09-22T14:55:33.012Z,26.17
2018-09-22T14:57:58.978Z,26.19
2018-09-22T15:00:24.931Z,26.18
2018-09-22T15:02:50.924Z,26.20
2018-09-22T15:05:16.883Z,26.11
2018-09-22T15:07:42.845Z,26.16
2018-09-22T15:10:08.808Z,26.11
2018-09-22T15:12:34.783Z,26.12
2018-09-22T15:15:00.734Z,26.14
2018-09-22T15:17:26.761Z,26.10
2018-09-22T15:19:52.691Z,26.16
2018-09-22T15:22:18.657Z,26.14
2018-09-22T15:24:44.640Z,26.16
2018-09-22T15:27:10.624Z,26.04
2018-09-22T15:29:36.573Z,26.00
2018-09-22T15:32:02.573Z,26.03
2018-09-22T15:34:28.556Z,26.13
2018-09-22T15:36:54.542Z,26.12
2018-09-22T15:39:20.504Z,26.07
2018-09-22T15:41:46.504Z,26.06
2018-09-22T15:44:12.600Z,26.08
2018-09-22T15:46:38.552Z,26.07
2018-09-22T15:49:04.533Z,26.04
2018-09-22T15:51:30.535Z,25.99
2018-09-22T15:53:56.475Z,26.02
2018-09-22T15:56:22.449Z,25.97
2018-09-22T15:58:48.415Z,25.99
2018-09-22T16:01:14.356Z,25.98
2018-09-22T16:03:40.300Z,25.92
2018-09-22T16:06:06.253Z,25.99
2018-09-22T16:08:32.222Z,25.96
2018-09-22T16:10:58.165Z,25.93
2018-09-22T16:13:24.127Z,25.92
2018-09-22T16:15:50.092Z,25.88
2018-09-22T16:18:16.061Z,25.85
2018-09-22T16:20:42.021Z,25.81
2018-09-22T16:23:08.005Z,25.77
2018-09-22T16:25:33.960Z,25.72
2018-09-22T16:27:59.929Z,25.71
2018-09-22T16:30:25.904Z,25.62
2018-09-22T16:32:51.897Z,25.64
2018-09-22T16:35:17.976Z,25.60
2018-09-22T16:37:43.959Z,25.61
2018-09-22T16:40:09.927Z,25.62
2018-09-22T16:42:35.874Z,25.66
2018-09-22T16:45:01.821Z,25.64
2018-09-22T16:47:27.809Z,25.65
2018-09-22T16:49:53.798Z,25.65
2018-09-22T16:52:19.758Z,25.64
2018-09-22T16:54:45.748Z,25.56
2018-09-22T16:57:11.745Z,25.46
2018-09-22T16:59:37.724Z,25.45
2018-09-22T17:02:03.737Z,25.37
2018-09-22T17:04:29.694Z,25.36
2018-09-22T17:06:55.697Z,25.35
2018-09-22T17:09:21.663Z,25.34
2018-09-22T17:11:47.681Z,25.30
2018-09-22T17:14:13.658Z,25.15
2018-09-22T17:16:39.813Z,25.24
2018-09-22T17:19:05.580Z,25.23
2018-09-22T17:21:31.561Z,25.11
2018-09-22T17:23:57.545Z,24.87
2018-09-22T17:26:23.536Z,24.79
2018-09-22T17:28:49.563Z,24.83
2018-09-22T17:31:15.598Z,24.84
2018-09-22T17:33:41.585Z,24.90
2018-09-22T17:36:07.574Z,24.92
2018-09-22T17:38:33.582Z,24.88
2018-09-22T17:40:59.595Z,24.82
2018-09-22T17:43:25.682Z,24.82
2018-09-22T17:45:51.684Z,24.78
2018-09-22T17:48:17.706Z,24.69
2018-09-22T17:50:43.703Z,24.69
2018-09-22T17:53:09.759Z,24.72
2018-09-22T17:55:35.771Z,24.77
2018-09-22T17:58:01.797Z,24.79
2018-09-22T18:00:27.803Z,24.69
2018-09-22T18:02:53.872Z,24.62
2018-09-22T18:05:19.860Z,24.66
2018-09-22T18:07:45.973Z,24.62
2018-09-22T18:10:11.994Z,24.69
2018-09-22T18:12:37.964Z,24.67
2018-09-22T18:15:03.957Z,24.55
2018-09-22T18:17:29.931Z,24.48
2018-09-22T18:19:55.898Z,24.51
2018-09-22T18:22:21.866Z,24.51
2018-09-22T18:24:47.954Z,24.51
2018-09-22T18:27:13.911Z,24.51
2018-09-22T18:29:39.919Z,24.49
2018-09-22T18:32:05.887Z,24.48
2018-09-22T18:34:31.856Z,24.52
2018-09-22T18:36:57.816Z,24.52
2018-09-22T18:39:24.774Z,24.51
2018-09-22T18:41:50.752Z,24.53
2018-09-22T18:44:16.777Z,24.54
2018-09-22T18:46:42.759Z,24.51
2018-09-22T18:49:08.717Z,24.50
2018-09-22T18:51:34.712Z,24.56
2018-09-22T18:54:00.704Z,24.67
2018-09-22T18:56:26.685Z,24.76
2018-09-22T18:58:52.689Z,24.73
2018-09-22T19:01:18.671Z,24.73
2018-09-22T19:03:44.645Z,24.80
2018-09-22T19:06:10.615Z,24.79
2018-09-22T19:08:36.600Z,24.81
2018-09-22T19:11:02.549Z,24.86
2018-09-22T19:13:28.541Z,24.83
2018-09-22T19:15:54.505Z,24.75
2018-09-22T19:18:20.470Z,24.80
2018-09-22T19:20:46.420Z,24.83
2018-09-22T19:23:12.380Z,24.83
2018-09-22T19:25:38.408Z,24.85
2018-09-22T19:28:04.756Z,24.82
2018-09-22T19:30:30.727Z,24.81
2018-09-22T19:32:56.703Z,24.77
2018-09-22T19:35:22.684Z,24.76
2018-09-22T19:37:48.661Z,24.78
2018-09-22T19:40:14.657Z,24.73
2018-09-22T19:42:40.642Z,24.66
2018-09-22T19:45:06.642Z,24.58
2018-09-22T19:47:32.625Z,24.69
2018-09-22T19:49:58.628Z,24.70
2018-09-22T19:52:24.586Z,24.71
2018-09-22T19:54:50.540Z,24.69
2018-09-22T19:57:16.528Z,24.69
2018-09-22T19:59:42.497Z,24.65
2018-09-22T20:02:08.505Z,24.60
2018-09-22T20:04:34.493Z,24.64
2018-09-22T20:07:00.476Z,24.63
2018-09-22T20:09:26.446Z,24.66
2018-09-22T20:11:52.392Z,24.71
2018-09-22T20:14:18.356Z,24.70
2018-09-22T20:16:44.332Z,24.70
2018-09-22T20:19:10.289Z,24.68
2018-09-22T20:21:36.227Z,24.68
2018-09-22T20:24:02.250Z,24.69
2018-09-22T20:26:28.198Z,24.72
2018-09-22T20:28:54.211Z,24.72
2018-09-22T20:31:20.177Z,24.72
2018-09-22T20:33:46.159Z,24.67
2018-09-22T20:36:12.133Z,24.71
2018-09-22T20:38:38.136Z,24.78
2018-09-22T20:41:04.124Z,24.81
2018-09-22T20:43:30.111Z,24.87
2018-09-22T20:45:56.101Z,24.90
2018-09-22T20:48:22.042Z,24.86
2018-09-22T20:50:47.989Z,24.83
2018-09-22T20:53:13.984Z,24.86
2018-09-22T20:55:39.947Z,24.86
2018-09-22T20:58:05.903Z,24.86
2018-09-22T21:00:31.903Z,24.82
2018-09-22T21:02:57.879Z,24.76
2018-09-22T21:05:23.840Z,24.74
2018-09-22T21:07:49.804Z,24.80
2018-09-22T21:10:15.782Z,24.82
2018-09-22T21:12:41.759Z,24.81
2018-09-22T21:15:07.715Z,24.82
2018-09-22T21:17:34.479Z,24.81
2018-09-22T21:20:00.423Z,24.85
2018-09-22T21:22:26.381Z,24.86
2018-09-22T21:24:52.368Z,24.86
2018-09-22T21:27:18.360Z,24.86
2018-09-22T21:29:44.321Z,24.81
2018-09-22T21:32:10.285Z,24.74
2018-09-22T21:34:36.265Z,24.72
2018-09-22T21:37:02.205Z,24.77
2018-09-22T21:39:28.196Z,24.79
2018-09-22T21:41:54.191Z,24.71
2018-09-22T21:44:20.100Z,24.74
2018-09-22T21:46:46.055Z,24.76
2018-09-22T21:49:12.014Z,24.74
2018-09-22T21:51:37.961Z,24.76
2018-09-22T21:54:03.912Z,24.80
2018-09-22T21:56:29.942Z,24.79
2018-09-22T21:58:55.896Z,24.80
2018-09-22T22:01:21.881Z,24.82
2018-09-22T22:03:47.864Z,24.81
2018-09-22T22:06:13.802Z,24.78
2018-09-22T22:08:40.797Z,24.72
2018-09-22T22:11:06.799Z,24.72
2018-09-22T22:13:32.746Z,24.74
2018-09-22T22:15:58.699Z,24.77
2018-09-22T22:18:24.665Z,24.81
2018-09-22T22:20:50.615Z,24.75
2018-09-22T22:23:16.564Z,24.69
2018-09-22T22:25:42.599Z,24.66
2018-09-22T22:28:08.514Z,24.68
2018-09-22T22:30:34.484Z,24.70
2018-09-22T22:33:00.459Z,24.74
2018-09-22T22:35:26.403Z,24.73
2018-09-22T22:37:52.384Z,24.70
2018-09-22T22:40:18.372Z,24.69
2018-09-22T22:42:44.352Z,24.73
2018-09-22T22:45:10.282Z,24.72
2018-09-22T22:47:36.240Z,24.68
2018-09-22T22:50:02.170Z,24.67
2018-09-22T22:52:28.143Z,24.62
2018-09-22T22:54:54.092Z,24.60
2018-09-22T22:57:20.049Z,24.60
2018-09-22T22:59:45.999Z,24.55
2018-09-22T23:02:11.957Z,24.43
2018-09-22T23:04:37.897Z,24.34
2018-09-22T23:07:03.838Z,24.27
2018-09-22T23:09:29.798Z,24.20
2018-09-22T23:11:55.764Z,24.24
2018-09-22T23:14:21.717Z,24.25
2018-09-22T23:16:47.677Z,24.27
2018-09-22T23:19:13.628Z,24.26
2018-09-22T23:21:39.597Z,24.18
2018-09-22T23:24:05.569Z,24.22
2018-09-22T23:26:31.520Z,24.21
2018-09-22T23:28:57.480Z,24.26
2018-09-22T23:31:23.418Z,24.23
2018-09-22T23:33:49.372Z,24.14
2018-09-22T23:36:15.317Z,24.05
2018-09-22T23:38:41.259Z,23.96
2018-09-22T23:41:07.193Z,23.93
2018-09-22T23:43:33.121Z,23.85
2018-09-22T23:45:59.079Z,23.83
2018-09-22T23:48:25.046Z,23.77
2018-09-22T23:50:50.999Z,23.75
2018-09-22T23:53:16.949Z,23.67
2018-09-22T23:55:42.885Z,23.61
2018-09-22T23:58:08.853Z,23.60
